AirNav   TITAN Aviation Fuels
 
 457 users online  

20CL Mysterious Valley Airport
Pope Valley, California, USA

GOING TO POPE VALLEY?


FAA INFORMATION EFFECTIVE 03 NOVEMBER 2022

Location

FAA Identifier: 20CL
Lat/Long: 38-44-57.6490N 122-22-02.9220W
38-44.960817N 122-22.048700W
38.7493469,-122.3674783
(estimated)
Elevation: 1410 ft. / 430 m (estimated)
Variation: 16E (1985)
From city: 9 miles N of POPE VALLEY, CA
Time zone: UTC -8 (UTC -7 during Daylight Saving Time)
Zip code: 94558

Airport Operations

Airport use: Private use. Permission required prior to landing
Activation date: 05/1971
Control tower: no
ARTCC: OAKLAND CENTER
FSS: OAKLAND FLIGHT SERVICE STATION
Attendance: IREG
Wind indicator: yes
Segmented circle: no

Nearby radio navigation aids

VOR radial/distance  VOR name  Freq  Var
ILAr201/25.0WILLIAMS VORTAC114.4018E
SGDr343/34.2SCAGGS ISLAND VORTAC112.1017E

Airport Services

Airframe service: NONE
Powerplant service: NONE

Runway Information

Runway 14/32

Dimensions: 3500 x 30 ft. / 1067 x 9 m
Surface: gravel
RUNWAY 14  RUNWAY 32
Traffic pattern: leftleft

Airport Ownership and Management from official FAA records

Ownership: Privately-owned
Owner: PERRY CLARK
AMIZETTA WINERY 1099 GREENFIELD RD
ST HELENA, CA 94574

Airport Operational Statistics

Aircraft based on the field: 2
Single engine airplanes: 2
    

Additional Remarks

HAZARDOUS STRIP-SURROUNDED BY HILLS, 95 FT FENCE TO FENCE.
FOR CD CTC OAKLAND ARTCC AT 510-745-3380.

Instrument Procedures

There are no published instrument procedures at 20CL.

Some nearby airports with instrument procedures:

O41 - Watts-Woodland Airport (24 nm E)
KSTS - Charles M Schulz - Sonoma County Airport (25 nm SW)
KDWA - Yolo County Airport (26 nm SE)
1O2 - Lampson Field Airport (29 nm NW)
O60 - Cloverdale Municipal Airport (29 nm W)
 
Loc | Ops | Rwys | IFR | FBO | Links
Com | Nav | Svcs | Stats | Notes

Sonoma Jet Center
 
Area around 20CL (Mysterious Valley Airport)
 
Road maps at: MapQuest Bing Google
 
Aerial photo
WARNING: Photo may not be current or correct
Aerial photo of 20CL (Mysterious Valley Airport)
Do you have a better or more recent aerial photo of Mysterious Valley Airport that you would like to share? If so, please send us your photo.

 
Sectional chart

 
Airport distance calculator
Flying to Mysterious Valley Airport? Find the distance to fly.

From to 20CL

Sunrise and sunset
Times for 28-Nov-2022
 Local
(UTC-8)
 Zulu
(UTC)
Morning civil twilight06:3814:38
Sunrise07:0715:07
Sunset16:4800:48
Evening civil twilight17:1701:17

Current date and time
Zulu (UTC)  28-Nov-2022 08:19:56
Local (UTC-8)  28-Nov-2022 00:19:56
 
METAR
KSTS 
26nm SW 
707-573-8393
280753Z AUTO 00000KT 9SM CLR 04/03 A3001 RMK AO2 SLP157 T00390028 401940000
KDWA 
26nm SE 
280755Z AUTO 00000KT 10SM CLR 05/M00 A2999 RMK AO2
KVCB 
29nm SE 
280753Z AUTO 00000KT 10SM CLR 04/01 A2998 RMK AO2 SLP150 T00440011 402000006
KO69 
32nm S 
280755Z AUTO 29008KT 8SM BKN003 05/05 A3001 RMK A01
KAPC 
33nm S 
280754Z AUTO 36003KT 9SM CLR 04/02 A3000 RMK AO2 SLP150 T00440022 401720006 $
KSUU 
36nm SE 
280555Z AUTO 20007KT 10SM CLR 06/03 A2998 RMK AO2 SLP159 T00620025 10199 20062 $
KSMF 
36nm E 
280753Z 09006KT 10SM CLR 07/02 A2999 RMK AO2 SLP151 T00720022 401830017 $
KDVO 
37nm S 
280755Z AUTO 00000KT 10SM CLR 05/05 A3001 RMK AO2
KSAC 
43nm E 
280753Z AUTO 12003KT 10SM CLR 07/02 A2998 RMK AO2 SLP151 T00720022 401890011 $
KUKI 
45nm NW 
280756Z AUTO 00000KT 10SM CLR 04/02 A3006 RMK AO2 SLP178 T00440017 401941006
TAF
KSTS 
26nm SW 
280520Z 2806/2906 35003KT P6SM SCT250 WS010/33030KT FM281200 33004KT 6SM BR BKN250 WS020/33030KT FM281800 32015G22KT P6SM BKN250 FM282200 32015G22KT P6SM BKN050 FM290200 30008KT P6SM SKC
NOTAMs
Click for the latest NOTAMs
NOTAMs are issued by the DoD/FAA and will open in a separate window not controlled by AirNav.

 

 
 

Would you like to see your business listed on this page?

 If your business provides an interesting product or service to pilots, flight crews, aircraft, or users of the Mysterious Valley Airport, you should consider listing it here.  To start the listing process, click on the button below
 
Add a business
 

Other Pages about Mysterious Valley Airport

Update a link
 
Copyright © AirNav, LLC. All rights reserved. Privacy Policy  Contact